Atlantic, Virginia
Current Conditions -  °F | °C
As of 1:54 AM on Monday 22 Dec 2014 (Local Time) from KWAL Reporting Station
Broken Clouds Broken Clouds  
Wind Chill: 27°   Ceiling: 4800
Heat Index: 32°   Visibility: 7mi
Dew Point: 26°   Wind: 5mph
Humidity: 79%   Direction: 10°N
Pressure: 30.31"   Gusts: NA
Location:  37.9°N, 75.51°W
Report Text: KWAL 220654Z AUTO 01004KT 7SM BKN048 00/M03 A3031 RMK AO2 SLP262 T00001033
Loading
Personal Weather Stations






























Interactive Weather Map New forecast layout! Learn more

10-Day Weather Forecast

Advertisements
Track Severe Weather on mobile